createdAt,value
2023-05-17T00:01:57.403Z,10.99
2023-05-17T00:04:25.000Z,10.95
2023-05-17T00:06:52.256Z,11.13
2023-05-17T00:09:19.878Z,11.24
2023-05-17T00:11:47.098Z,11.21
2023-05-17T00:14:14.669Z,11.14
2023-05-17T00:16:42.034Z,11.16
2023-05-17T00:19:09.835Z,11.25
2023-05-17T00:21:37.361Z,11.29
2023-05-17T00:24:05.299Z,11.42
2023-05-17T00:26:34.158Z,10.94
2023-05-17T00:29:01.800Z,11.32
2023-05-17T00:31:29.332Z,11.30
2023-05-17T00:33:56.895Z,11.40
2023-05-17T00:36:24.373Z,11.51
2023-05-17T00:38:51.926Z,11.58
2023-05-17T00:41:19.232Z,11.56
2023-05-17T00:43:46.900Z,11.51
2023-05-17T00:46:14.306Z,11.69
2023-05-17T00:48:42.934Z,11.50
2023-05-17T00:51:12.171Z,11.55
2023-05-17T00:53:39.760Z,11.38
2023-05-17T00:56:07.384Z,11.41
2023-05-17T00:58:36.984Z,11.48
2023-05-17T01:01:06.099Z,11.31
2023-05-17T01:03:33.826Z,11.47
2023-05-17T01:06:01.199Z,11.44
2023-05-17T01:08:29.875Z,11.47
2023-05-17T01:11:24.436Z,11.27
2023-05-17T01:14:27.546Z,11.58
2023-05-17T01:17:07.336Z,11.37
2023-05-17T01:19:34.971Z,11.41
2023-05-17T01:22:28.534Z,11.47
2023-05-17T01:25:30.603Z,11.48
2023-05-17T01:28:01.570Z,11.26
2023-05-17T01:30:30.403Z,10.51
2023-05-17T01:32:59.509Z,10.98
2023-05-17T01:35:27.428Z,11.01
2023-05-17T01:37:55.949Z,11.01
2023-05-17T01:40:24.183Z,10.99
2023-05-17T01:42:58.220Z,11.15
2023-05-17T01:45:36.171Z,11.21
2023-05-17T01:48:21.050Z,11.20
2023-05-17T01:50:54.557Z,10.96
2023-05-17T01:53:45.460Z,11.04
2023-05-17T01:56:33.718Z,10.91
2023-05-17T01:59:04.669Z,10.91
2023-05-17T02:01:32.967Z,11.01
2023-05-17T02:04:00.255Z,10.96
2023-05-17T02:06:27.931Z,10.66
2023-05-17T02:08:55.144Z,10.85
2023-05-17T02:11:23.654Z,10.80
2023-05-17T02:13:53.159Z,10.88
2023-05-17T02:16:21.005Z,10.66
2023-05-17T02:18:50.209Z,10.78
2023-05-17T02:21:18.704Z,10.67
2023-05-17T02:23:46.217Z,10.77
2023-05-17T02:26:13.731Z,10.85
2023-05-17T02:28:41.240Z,11.01
2023-05-17T02:31:09.537Z,11.00
2023-05-17T02:33:37.579Z,11.01
2023-05-17T02:36:05.490Z,11.04
2023-05-17T02:38:32.709Z,10.97
2023-05-17T02:41:00.255Z,10.93
2023-05-17T02:43:27.552Z,10.94
2023-05-17T02:45:55.133Z,11.00
2023-05-17T02:48:22.439Z,10.90
2023-05-17T02:50:49.994Z,10.93
2023-05-17T02:53:17.515Z,10.94
2023-05-17T02:55:45.084Z,11.09
2023-05-17T02:58:13.283Z,10.90
2023-05-17T03:00:45.762Z,10.99
2023-05-17T03:03:13.865Z,11.09
2023-05-17T03:05:41.529Z,11.12
2023-05-17T03:08:09.470Z,11.18
2023-05-17T03:10:37.066Z,11.27
2023-05-17T03:13:05.070Z,11.40
2023-05-17T03:15:36.607Z,11.50
2023-05-17T03:18:04.534Z,11.49
2023-05-17T03:20:32.272Z,11.71
2023-05-17T03:22:59.558Z,11.67
2023-05-17T03:25:27.971Z,11.56
2023-05-17T03:27:56.250Z,11.61
2023-05-17T03:30:24.069Z,11.85
2023-05-17T03:32:53.338Z,11.92
2023-05-17T03:35:21.121Z,11.90
2023-05-17T03:37:52.338Z,12.09
2023-05-17T03:40:19.866Z,12.15
2023-05-17T03:42:47.374Z,12.53
2023-05-17T03:45:16.538Z,12.77
2023-05-17T03:47:43.857Z,12.74
2023-05-17T03:50:12.647Z,12.75
2023-05-17T03:52:42.173Z,12.83
2023-05-17T03:55:09.896Z,12.63
2023-05-17T03:57:37.264Z,12.88
2023-05-17T04:00:09.324Z,12.49
2023-05-17T04:02:42.032Z,12.61
2023-05-17T04:05:10.886Z,12.79
2023-05-17T04:07:38.182Z,12.95
2023-05-17T04:10:06.154Z,13.29
2023-05-17T04:12:33.545Z,12.90
2023-05-17T04:15:01.898Z,12.98
2023-05-17T04:17:30.155Z,13.36
2023-05-17T04:19:57.986Z,13.74
2023-05-17T04:22:25.704Z,13.27
2023-05-17T04:24:53.213Z,13.19
2023-05-17T04:27:22.030Z,13.67
2023-05-17T04:29:49.780Z,13.69
2023-05-17T04:32:18.170Z,13.78
2023-05-17T04:34:45.950Z,14.01
2023-05-17T04:37:13.337Z,14.17
2023-05-17T04:39:41.382Z,14.16
2023-05-17T04:42:09.307Z,14.22
2023-05-17T04:44:41.559Z,14.37
2023-05-17T04:47:10.278Z,14.38
2023-05-17T04:49:37.979Z,14.12
2023-05-17T04:52:06.276Z,14.38
2023-05-17T04:54:35.692Z,13.83
2023-05-17T04:57:03.814Z,13.97
2023-05-17T04:59:55.037Z,13.73
2023-05-17T05:02:22.424Z,14.48
2023-05-17T05:04:50.221Z,14.88
2023-05-17T05:07:18.097Z,14.53
2023-05-17T05:09:47.082Z,15.00
2023-05-17T05:12:16.285Z,16.00
2023-05-17T05:14:44.244Z,15.98
2023-05-17T05:17:11.674Z,17.58
2023-05-17T05:19:41.229Z,18.79
2023-05-17T05:22:08.886Z,20.96
2023-05-17T05:24:38.106Z,22.30
2023-05-17T05:27:07.079Z,24.23
2023-05-17T05:29:35.173Z,24.02
2023-05-17T05:32:02.908Z,25.51
2023-05-17T05:34:33.369Z,26.30
2023-05-17T05:37:00.770Z,26.54
2023-05-17T05:39:28.314Z,27.86
2023-05-17T05:41:55.779Z,28.51
2023-05-17T05:44:25.218Z,27.76
2023-05-17T05:46:53.509Z,28.45
2023-05-17T05:49:21.678Z,30.18
2023-05-17T05:51:49.225Z,31.19
2023-05-17T05:54:18.460Z,28.44
2023-05-17T05:56:46.142Z,28.99
2023-05-17T05:59:15.630Z,29.64
2023-05-17T06:01:43.866Z,30.58
2023-05-17T06:04:11.464Z,30.60
2023-05-17T06:06:38.760Z,30.82
2023-05-17T06:09:07.536Z,30.04
2023-05-17T06:11:35.049Z,31.06
2023-05-17T06:14:02.636Z,30.11
2023-05-17T06:16:29.885Z,31.90
2023-05-17T06:18:57.545Z,30.79
2023-05-17T06:21:25.549Z,32.72
2023-05-17T06:23:53.304Z,32.57
2023-05-17T06:26:20.767Z,32.78
2023-05-17T06:28:48.303Z,31.96
2023-05-17T06:31:15.883Z,33.50
2023-05-17T06:33:43.501Z,33.60
2023-05-17T06:36:11.009Z,34.03
2023-05-17T06:38:38.531Z,33.44
2023-05-17T06:41:06.078Z,31.92
2023-05-17T06:43:35.512Z,33.62
2023-05-17T06:46:03.704Z,33.40
2023-05-17T06:48:31.392Z,31.53
2023-05-17T06:50:58.805Z,33.94
2023-05-17T06:53:27.327Z,33.36
2023-05-17T06:55:54.653Z,33.43
2023-05-17T06:58:22.288Z,33.55
2023-05-17T07:00:49.579Z,34.10
2023-05-17T07:03:17.166Z,33.90
2023-05-17T07:05:44.486Z,30.69
2023-05-17T07:08:12.173Z,29.13
2023-05-17T07:10:39.417Z,28.03
2023-05-17T07:13:07.018Z,27.07
2023-05-17T07:15:34.283Z,24.00
2023-05-17T07:18:04.167Z,22.95
2023-05-17T07:20:31.553Z,21.00
2023-05-17T07:22:59.124Z,20.03
2023-05-17T07:25:26.519Z,17.27
2023-05-17T07:27:54.193Z,16.58
2023-05-17T07:30:21.483Z,14.97
2023-05-17T07:32:49.116Z,15.69
2023-05-17T07:35:16.534Z,15.63
2023-05-17T07:37:44.275Z,15.94
2023-05-17T07:40:12.132Z,16.55
2023-05-17T07:42:39.716Z,16.73
2023-05-17T07:45:07.734Z,16.76
2023-05-17T07:47:35.391Z,17.07
2023-05-17T07:50:04.176Z,17.23
2023-05-17T07:52:31.763Z,16.50
2023-05-17T07:54:59.043Z,16.07
2023-05-17T07:57:27.523Z,15.49
2023-05-17T07:59:54.786Z,16.15
2023-05-17T08:02:22.401Z,16.57
2023-05-17T08:04:49.798Z,15.61
2023-05-17T08:07:17.514Z,16.15
2023-05-17T08:09:45.592Z,16.48
2023-05-17T08:12:13.167Z,16.22
2023-05-17T08:14:40.733Z,15.64
2023-05-17T08:17:08.348Z,15.86
2023-05-17T08:19:36.162Z,17.63
2023-05-17T08:22:03.983Z,17.33
2023-05-17T08:24:31.285Z,16.54
2023-05-17T08:27:01.563Z,16.08
2023-05-17T08:29:28.838Z,19.27
2023-05-17T08:31:56.463Z,22.09
2023-05-17T08:34:24.011Z,22.83
2023-05-17T08:36:51.809Z,21.64
2023-05-17T08:39:20.659Z,20.55
2023-05-17T08:41:48.668Z,19.31
2023-05-17T08:44:19.116Z,18.19
2023-05-17T08:46:53.763Z,17.46
2023-05-17T08:49:26.435Z,17.02
2023-05-17T08:51:55.496Z,16.89
2023-05-17T08:54:23.074Z,15.84
2023-05-17T08:56:54.025Z,16.27
2023-05-17T08:59:22.529Z,15.59
2023-05-17T09:01:54.252Z,15.94
2023-05-17T09:04:22.386Z,15.54
2023-05-17T09:06:50.748Z,15.78
2023-05-17T09:09:19.023Z,15.90
2023-05-17T09:11:47.570Z,15.76
2023-05-17T09:14:17.413Z,18.02
2023-05-17T09:16:45.109Z,18.56
2023-05-17T09:19:17.707Z,18.16
2023-05-17T09:21:48.883Z,18.94
2023-05-17T09:24:20.318Z,19.77
2023-05-17T09:26:47.844Z,22.19
2023-05-17T09:29:16.922Z,22.09
2023-05-17T09:31:44.938Z,21.01
2023-05-17T09:34:12.874Z,20.42
2023-05-17T09:36:44.207Z,18.91
2023-05-17T09:39:13.642Z,18.29
2023-05-17T09:41:45.250Z,18.04
2023-05-17T09:44:14.029Z,18.40
2023-05-17T09:46:47.419Z,18.40
2023-05-17T09:49:16.187Z,19.43
2023-05-17T09:51:45.933Z,19.94
2023-05-17T09:54:14.127Z,20.03
2023-05-17T09:56:42.255Z,19.16
2023-05-17T09:59:16.688Z,19.80
2023-05-17T10:01:45.801Z,20.93
2023-05-17T10:04:14.323Z,22.04
2023-05-17T10:06:49.671Z,22.71
2023-05-17T10:09:22.357Z,22.40
2023-05-17T10:11:53.051Z,22.14
2023-05-17T10:14:27.811Z,21.18
2023-05-17T10:16:56.410Z,21.79
2023-05-17T10:19:25.183Z,20.99
2023-05-17T10:21:54.149Z,20.24
2023-05-17T10:24:22.942Z,21.35
2023-05-17T10:26:51.395Z,21.24
2023-05-17T10:29:22.455Z,22.54
2023-05-17T10:31:51.997Z,21.37
2023-05-17T10:34:20.716Z,22.67
2023-05-17T10:36:52.142Z,23.08
2023-05-17T10:39:22.159Z,23.85
2023-05-17T10:41:54.023Z,24.43
2023-05-17T10:44:30.595Z,23.31
2023-05-17T10:46:59.716Z,22.82
2023-05-17T10:49:30.409Z,22.43
2023-05-17T10:51:59.646Z,23.56
2023-05-17T10:54:39.345Z,23.85
2023-05-17T10:57:08.981Z,23.10
2023-05-17T10:59:36.586Z,22.57
2023-05-17T11:02:10.191Z,22.67
2023-05-17T11:04:39.144Z,21.56
2023-05-17T11:07:19.333Z,21.76
2023-05-17T11:09:50.109Z,21.09
2023-05-17T11:12:30.194Z,21.00
2023-05-17T11:14:59.129Z,19.53
2023-05-17T11:17:34.219Z,18.81
2023-05-17T11:20:05.592Z,19.20
2023-05-17T11:22:44.067Z,19.29
2023-05-17T11:25:13.670Z,19.59
2023-05-17T11:27:52.498Z,19.78
2023-05-17T11:30:31.080Z,19.48
2023-05-17T11:33:02.801Z,19.80
2023-05-17T11:35:35.987Z,20.23
2023-05-17T11:38:18.997Z,20.08
2023-05-17T11:40:47.832Z,19.80
2023-05-17T11:43:27.521Z,19.00
2023-05-17T11:46:03.886Z,18.39
2023-05-17T11:48:32.310Z,18.17
2023-05-17T11:51:02.170Z,18.63
2023-05-17T11:53:31.872Z,18.35
2023-05-17T11:56:04.679Z,18.41
2023-05-17T11:58:32.697Z,18.32
2023-05-17T12:00:59.981Z,18.43
2023-05-17T12:03:32.603Z,17.72
2023-05-17T12:06:10.121Z,17.65
2023-05-17T12:08:40.167Z,16.89
2023-05-17T12:11:10.985Z,17.75
2023-05-17T12:13:41.902Z,17.91
2023-05-17T12:16:16.807Z,17.71
2023-05-17T12:18:49.713Z,17.47
2023-05-17T12:21:19.213Z,17.56
2023-05-17T12:23:51.139Z,16.96
2023-05-17T12:26:19.435Z,17.00
2023-05-17T12:28:54.716Z,17.00
2023-05-17T12:31:32.554Z,16.00
2023-05-17T12:34:02.767Z,16.36
2023-05-17T12:36:32.175Z,16.53
2023-05-17T12:39:01.413Z,16.02
2023-05-17T12:41:30.408Z,15.88
2023-05-17T12:44:13.751Z,15.36
2023-05-17T12:46:42.972Z,15.00
2023-05-17T12:49:14.545Z,15.01
2023-05-17T12:51:47.025Z,15.34
2023-05-17T12:54:25.111Z,14.71
2023-05-17T12:56:52.615Z,14.24
2023-05-17T12:59:28.877Z,14.15
2023-05-17T13:01:57.970Z,14.43
2023-05-17T13:04:32.241Z,14.67
2023-05-17T13:07:02.320Z,15.36
2023-05-17T13:09:31.361Z,15.67
2023-05-17T13:12:05.458Z,16.05
2023-05-17T13:14:46.628Z,16.00
2023-05-17T13:17:24.909Z,15.91
2023-05-17T13:19:53.492Z,15.69
2023-05-17T13:22:20.927Z,15.31
2023-05-17T13:24:48.479Z,15.18
2023-05-17T13:27:15.993Z,14.96
2023-05-17T13:29:44.137Z,15.31
2023-05-17T13:32:13.832Z,15.35
2023-05-17T13:34:41.673Z,15.60
2023-05-17T13:37:12.182Z,16.06
2023-05-17T13:39:41.918Z,15.59
2023-05-17T13:42:10.942Z,15.62
2023-05-17T13:44:39.483Z,15.43
2023-05-17T13:47:07.270Z,15.50
2023-05-17T13:49:34.911Z,15.61
2023-05-17T13:52:02.420Z,15.53
2023-05-17T13:54:30.014Z,15.60
2023-05-17T13:56:57.677Z,15.37
2023-05-17T13:59:25.392Z,15.81
2023-05-17T14:01:53.172Z,15.63
2023-05-17T14:04:21.441Z,15.46
2023-05-17T14:06:51.150Z,14.61
2023-05-17T14:09:20.463Z,14.38
2023-05-17T14:11:47.740Z,14.74
2023-05-17T14:14:15.276Z,15.28
2023-05-17T14:16:42.564Z,14.97
2023-05-17T14:19:10.257Z,15.24
2023-05-17T14:21:37.572Z,15.29
2023-05-17T14:24:05.460Z,14.84
2023-05-17T14:26:32.788Z,15.17
2023-05-17T14:29:00.443Z,15.25
2023-05-17T14:31:29.974Z,15.59
2023-05-17T14:33:57.774Z,15.49
2023-05-17T14:36:25.142Z,15.44
2023-05-17T14:38:52.810Z,15.38
2023-05-17T14:41:20.273Z,15.17
2023-05-17T14:43:47.915Z,15.50
2023-05-17T14:46:15.145Z,14.71
2023-05-17T14:48:42.752Z,14.44
2023-05-17T14:51:10.113Z,15.14
2023-05-17T14:53:37.740Z,14.75
2023-05-17T14:56:05.370Z,14.21
2023-05-17T14:58:33.002Z,14.57
2023-05-17T15:03:30.827Z,14.17
2023-05-17T15:05:58.560Z,14.00
2023-05-17T15:08:27.397Z,13.95
2023-05-17T15:10:54.714Z,13.82
2023-05-17T15:13:22.554Z,14.30
2023-05-17T15:15:49.784Z,13.21
2023-05-17T15:18:17.397Z,13.71
2023-05-17T15:20:44.700Z,13.98
2023-05-17T15:23:12.527Z,14.11
2023-05-17T15:25:39.800Z,13.85
2023-05-17T15:28:07.449Z,14.11
2023-05-17T15:30:34.725Z,13.68
2023-05-17T15:33:02.867Z,13.87
2023-05-17T15:35:30.527Z,13.95
2023-05-17T15:37:59.540Z,13.92
2023-05-17T15:40:26.857Z,13.86
2023-05-17T15:42:54.390Z,13.06
2023-05-17T15:45:21.942Z,13.74
2023-05-17T15:47:49.727Z,13.08
2023-05-17T15:50:17.176Z,13.15
2023-05-17T15:52:45.987Z,13.53
2023-05-17T15:55:13.399Z,13.58
2023-05-17T15:57:41.499Z,13.18
2023-05-17T16:00:09.570Z,13.64
2023-05-17T16:02:37.256Z,13.50
2023-05-17T16:05:05.319Z,13.76
2023-05-17T16:07:32.961Z,13.07
2023-05-17T16:10:00.246Z,13.14
2023-05-17T16:12:27.867Z,13.59
2023-05-17T16:14:55.092Z,13.43
2023-05-17T16:17:22.712Z,13.26
2023-05-17T16:19:50.079Z,13.33
2023-05-17T16:22:17.644Z,13.49
2023-05-17T16:24:45.045Z,13.53
2023-05-17T16:27:12.691Z,13.16
2023-05-17T16:29:40.404Z,13.71
2023-05-17T16:32:08.472Z,13.06
2023-05-17T16:34:36.390Z,13.71
2023-05-17T16:37:04.839Z,13.45
2023-05-17T16:39:33.113Z,13.41
2023-05-17T16:42:00.837Z,13.79
2023-05-17T16:44:28.264Z,13.50
2023-05-17T16:46:56.118Z,13.79
2023-05-17T16:49:23.398Z,13.69
2023-05-17T16:51:52.381Z,13.23
2023-05-17T16:54:19.776Z,13.52
2023-05-17T16:56:47.758Z,13.10
2023-05-17T16:59:15.955Z,13.26
2023-05-17T17:01:43.707Z,13.28
2023-05-17T17:04:11.175Z,13.12
2023-05-17T17:06:38.899Z,12.58
2023-05-17T17:09:08.377Z,12.96
2023-05-17T17:11:36.052Z,12.64
2023-05-17T17:14:03.298Z,13.14
2023-05-17T17:16:31.774Z,13.02
2023-05-17T17:18:59.523Z,12.75
2023-05-17T17:21:27.159Z,12.44
2023-05-17T17:23:54.373Z,12.33
2023-05-17T17:26:22.140Z,12.41
2023-05-17T17:28:49.427Z,12.43
2023-05-17T17:31:18.315Z,12.37
2023-05-17T17:33:45.651Z,12.21
2023-05-17T17:36:13.235Z,12.54
2023-05-17T17:38:40.631Z,12.46
2023-05-17T17:41:08.209Z,12.27
2023-05-17T17:43:35.857Z,12.13
2023-05-17T17:46:03.775Z,12.04
2023-05-17T17:48:31.361Z,11.90
2023-05-17T17:50:59.219Z,11.94
2023-05-17T17:53:26.670Z,11.99
2023-05-17T17:55:54.242Z,12.07
2023-05-17T17:58:21.545Z,12.02
2023-05-17T18:00:49.418Z,12.02
2023-05-17T18:03:16.871Z,12.04
2023-05-17T18:05:44.488Z,11.80
2023-05-17T18:08:11.752Z,11.51
2023-05-17T18:10:39.311Z,11.70
2023-05-17T18:13:06.782Z,11.74
2023-05-17T18:15:34.364Z,11.82
2023-05-17T18:18:01.623Z,11.54
2023-05-17T18:20:29.597Z,11.63
2023-05-17T18:22:57.085Z,11.71
2023-05-17T18:25:24.682Z,11.40
2023-05-17T18:27:51.900Z,11.52
2023-05-17T18:30:19.566Z,11.29
2023-05-17T18:32:46.920Z,11.17
2023-05-17T18:35:14.657Z,10.68
2023-05-17T18:37:41.919Z,10.98
2023-05-17T18:40:09.859Z,11.02
2023-05-17T18:42:37.148Z,10.94
2023-05-17T18:45:05.249Z,10.68
2023-05-17T18:47:32.600Z,10.93
2023-05-17T18:50:00.168Z,10.92
2023-05-17T18:52:27.424Z,10.90
2023-05-17T18:54:54.985Z,10.77
2023-05-17T18:57:22.255Z,10.64
2023-05-17T18:59:49.790Z,10.53
2023-05-17T19:02:17.066Z,10.59
2023-05-17T19:04:44.948Z,10.62
2023-05-17T19:07:12.249Z,10.52
2023-05-17T19:09:39.825Z,10.51
2023-05-17T19:12:07.487Z,10.57
2023-05-17T19:14:35.154Z,10.70
2023-05-17T19:17:02.512Z,10.35
2023-05-17T19:19:31.372Z,10.22
2023-05-17T19:22:00.706Z,10.39
2023-05-17T19:24:28.413Z,10.28
2023-05-17T19:26:55.761Z,10.21
2023-05-17T19:29:23.346Z,10.26
2023-05-17T19:31:51.161Z,10.38
2023-05-17T19:34:18.902Z,10.36
2023-05-17T19:36:46.194Z,10.40
2023-05-17T19:39:14.028Z,10.40
2023-05-17T19:41:41.396Z,10.40
2023-05-17T19:44:08.958Z,10.45
2023-05-17T19:46:36.273Z,10.52
2023-05-17T19:49:04.670Z,10.57
2023-05-17T19:51:32.110Z,10.30
2023-05-17T19:53:59.668Z,10.26
2023-05-17T19:56:27.155Z,10.36
2023-05-17T19:58:54.962Z,10.49
2023-05-17T20:01:22.243Z,10.52
2023-05-17T20:03:49.951Z,10.44
2023-05-17T20:06:17.270Z,10.20
2023-05-17T20:08:45.523Z,9.81
2023-05-17T20:11:13.217Z,9.91
2023-05-17T20:13:41.004Z,9.95
2023-05-17T20:16:13.004Z,9.85
2023-05-17T20:18:44.979Z,9.86
2023-05-17T20:21:15.461Z,9.78
2023-05-17T20:23:43.343Z,9.72
2023-05-17T20:26:16.789Z,9.80
2023-05-17T20:28:44.916Z,9.69
2023-05-17T20:31:12.545Z,9.56
2023-05-17T20:33:40.171Z,9.74
2023-05-17T20:36:07.611Z,9.60
2023-05-17T20:38:35.182Z,9.51
2023-05-17T20:41:03.220Z,9.65
2023-05-17T20:43:30.769Z,9.57
2023-05-17T20:45:58.076Z,9.60
2023-05-17T20:48:25.848Z,9.59
2023-05-17T20:50:53.240Z,9.67
2023-05-17T20:53:20.873Z,9.40
2023-05-17T20:55:49.388Z,9.53
2023-05-17T20:58:17.023Z,9.51
2023-05-17T21:00:44.454Z,9.35
2023-05-17T21:03:12.075Z,9.20
2023-05-17T21:05:39.416Z,9.32
2023-05-17T21:08:12.957Z,9.25
2023-05-17T21:10:42.820Z,9.26
2023-05-17T21:13:10.423Z,9.26
2023-05-17T21:15:37.748Z,9.40
2023-05-17T21:18:06.839Z,9.46
2023-05-17T21:20:34.150Z,9.57
2023-05-17T21:23:01.685Z,9.49
2023-05-17T21:25:29.450Z,9.42
2023-05-17T21:27:57.251Z,9.44
2023-05-17T21:30:24.506Z,9.47
2023-05-17T21:32:52.155Z,9.44
2023-05-17T21:35:19.479Z,9.41
2023-05-17T21:37:47.907Z,9.39
2023-05-17T21:40:15.166Z,9.32
2023-05-17T21:42:42.696Z,9.29
2023-05-17T21:45:11.582Z,9.28
2023-05-17T21:47:39.135Z,9.30
2023-05-17T21:50:07.186Z,9.23
2023-05-17T21:52:34.892Z,9.25
2023-05-17T21:55:02.293Z,9.34
2023-05-17T21:57:29.852Z,9.12
2023-05-17T21:59:57.085Z,8.91
2023-05-17T22:02:24.689Z,8.89
2023-05-17T22:04:53.223Z,9.04
2023-05-17T22:07:20.762Z,8.94
2023-05-17T22:09:48.278Z,9.05
2023-05-17T22:12:15.824Z,9.11
2023-05-17T22:14:45.511Z,9.08
2023-05-17T22:17:15.080Z,9.05
2023-05-17T22:19:45.314Z,9.08
2023-05-17T22:22:13.086Z,8.33
2023-05-17T22:24:40.307Z,8.82
2023-05-17T22:27:08.009Z,8.86
2023-05-17T22:29:35.379Z,8.82
2023-05-17T22:32:03.029Z,8.77
2023-05-17T22:34:30.396Z,8.90
2023-05-17T22:36:58.400Z,8.93
2023-05-17T22:39:25.771Z,8.87
2023-05-17T22:41:53.351Z,8.54
2023-05-17T22:44:21.956Z,8.80
2023-05-17T22:46:49.731Z,8.64
2023-05-17T22:49:17.085Z,8.74
2023-05-17T22:51:44.652Z,8.66
2023-05-17T22:54:11.984Z,8.90
2023-05-17T22:56:39.637Z,8.68
2023-05-17T22:59:06.862Z,8.73
2023-05-17T23:01:34.488Z,8.59
2023-05-17T23:04:01.998Z,8.77
2023-05-17T23:06:32.214Z,8.80
2023-05-17T23:09:00.353Z,8.69
2023-05-17T23:11:28.454Z,8.70
2023-05-17T23:13:55.869Z,8.65
2023-05-17T23:16:26.233Z,8.70
2023-05-17T23:18:54.036Z,8.86
2023-05-17T23:21:21.905Z,8.74
2023-05-17T23:23:50.018Z,8.64
2023-05-17T23:26:17.639Z,8.67
2023-05-17T23:28:44.899Z,8.77
2023-05-17T23:31:12.487Z,8.80
2023-05-17T23:33:42.719Z,8.51
2023-05-17T23:36:11.166Z,8.59
2023-05-17T23:38:38.473Z,8.25
2023-05-17T23:41:07.484Z,8.27
2023-05-17T23:43:34.856Z,8.27
2023-05-17T23:46:03.509Z,8.25
2023-05-17T23:48:30.770Z,8.13
2023-05-17T23:50:58.296Z,8.12
2023-05-17T23:53:26.307Z,8.04
2023-05-17T23:55:54.027Z,8.07
2023-05-17T23:58:21.407Z,8.05
